sensor_id;sensor_type;location;lat;lon;timestamp;P1;durP1;ratioP1;P2;durP2;ratioP2
66870;SDS011;53780;44.998;9.926;2023-03-01T00:01:40;29.15;;;13.20;;
66870;SDS011;53780;44.998;9.926;2023-03-01T00:04:44;31.77;;;13.80;;
66870;SDS011;53780;44.998;9.926;2023-03-01T00:07:48;31.20;;;13.70;;
66870;SDS011;53780;44.998;9.926;2023-03-01T00:11:09;31.52;;;14.23;;
66870;SDS011;53780;44.998;9.926;2023-03-01T00:14:14;34.15;;;14.05;;
66870;SDS011;53780;44.998;9.926;2023-03-01T00:17:19;34.95;;;14.88;;
66870;SDS011;53780;44.998;9.926;2023-03-01T00:20:23;31.52;;;14.02;;
66870;SDS011;53780;44.998;9.926;2023-03-01T00:23:27;33.40;;;13.77;;
66870;SDS011;53780;44.998;9.926;2023-03-01T00:26:31;33.17;;;14.65;;
66870;SDS011;53780;44.998;9.926;2023-03-01T00:29:36;36.13;;;15.88;;
66870;SDS011;53780;44.998;9.926;2023-03-01T00:32:39;35.38;;;15.38;;
66870;SDS011;53780;44.998;9.926;2023-03-01T00:35:43;36.92;;;15.23;;
66870;SDS011;53780;44.998;9.926;2023-03-01T00:38:47;39.93;;;17.33;;
66870;SDS011;53780;44.998;9.926;2023-03-01T00:41:51;38.47;;;15.48;;
66870;SDS011;53780;44.998;9.926;2023-03-01T00:44:54;33.92;;;15.13;;
66870;SDS011;53780;44.998;9.926;2023-03-01T00:47:58;34.78;;;14.82;;
66870;SDS011;53780;44.998;9.926;2023-03-01T00:51:09;32.35;;;14.10;;
66870;SDS011;53780;44.998;9.926;2023-03-01T00:54:15;31.67;;;13.80;;
66870;SDS011;53780;44.998;9.926;2023-03-01T00:57:18;34.47;;;14.25;;
66870;SDS011;53780;44.998;9.926;2023-03-01T01:00:22;32.67;;;14.85;;
66870;SDS011;53780;44.998;9.926;2023-03-01T01:03:26;31.48;;;13.93;;
66870;SDS011;53780;44.998;9.926;2023-03-01T01:06:35;33.58;;;13.73;;
66870;SDS011;53780;44.998;9.926;2023-03-01T01:09:46;30.63;;;13.33;;
66870;SDS011;53780;44.998;9.926;2023-03-01T01:12:50;32.13;;;13.10;;
66870;SDS011;53780;44.998;9.926;2023-03-01T01:15:54;33.22;;;14.75;;
66870;SDS011;53780;44.998;9.926;2023-03-01T01:18:59;38.72;;;15.27;;
66870;SDS011;53780;44.998;9.926;2023-03-01T01:22:02;36.55;;;14.75;;
66870;SDS011;53780;44.998;9.926;2023-03-01T01:25:07;32.73;;;14.13;;
66870;SDS011;53780;44.998;9.926;2023-03-01T01:28:11;33.88;;;14.23;;
66870;SDS011;53780;44.998;9.926;2023-03-01T01:31:15;31.27;;;13.38;;
66870;SDS011;53780;44.998;9.926;2023-03-01T01:34:20;34.47;;;13.50;;
66870;SDS011;53780;44.998;9.926;2023-03-01T01:37:25;30.77;;;13.38;;
66870;SDS011;53780;44.998;9.926;2023-03-01T01:40:34;31.43;;;13.20;;
66870;SDS011;53780;44.998;9.926;2023-03-01T01:43:42;32.33;;;14.25;;
66870;SDS011;53780;44.998;9.926;2023-03-01T01:49:57;36.97;;;14.85;;
66870;SDS011;53780;44.998;9.926;2023-03-01T01:53:01;35.97;;;14.57;;
66870;SDS011;53780;44.998;9.926;2023-03-01T01:56:06;32.27;;;13.17;;
66870;SDS011;53780;44.998;9.926;2023-03-01T01:59:12;34.03;;;13.70;;
66870;SDS011;53780;44.998;9.926;2023-03-01T02:02:17;36.08;;;14.82;;
66870;SDS011;53780;44.998;9.926;2023-03-01T02:05:26;33.72;;;14.88;;
66870;SDS011;53780;44.998;9.926;2023-03-01T02:08:40;37.45;;;15.07;;
66870;SDS011;53780;44.998;9.926;2023-03-01T02:11:45;36.73;;;14.43;;
66870;SDS011;53780;44.998;9.926;2023-03-01T02:14:51;39.58;;;15.43;;
66870;SDS011;53780;44.998;9.926;2023-03-01T02:17:55;37.00;;;15.50;;
66870;SDS011;53780;44.998;9.926;2023-03-01T02:31:06;35.15;;;13.88;;
66870;SDS011;53780;44.998;9.926;2023-03-01T02:34:30;35.72;;;14.63;;
66870;SDS011;53780;44.998;9.926;2023-03-01T02:37:35;37.65;;;14.57;;
66870;SDS011;53780;44.998;9.926;2023-03-01T02:40:39;33.92;;;14.00;;
66870;SDS011;53780;44.998;9.926;2023-03-01T02:43:44;31.17;;;13.70;;
66870;SDS011;53780;44.998;9.926;2023-03-01T02:46:49;32.53;;;13.50;;
66870;SDS011;53780;44.998;9.926;2023-03-01T02:49:55;35.17;;;14.27;;
66870;SDS011;53780;44.998;9.926;2023-03-01T02:56:21;66.28;;;22.33;;
66870;SDS011;53780;44.998;9.926;2023-03-01T02:59:27;33.00;;;13.13;;
66870;SDS011;53780;44.998;9.926;2023-03-01T03:02:34;32.30;;;13.05;;
66870;SDS011;53780;44.998;9.926;2023-03-01T03:05:51;32.85;;;12.90;;
66870;SDS011;53780;44.998;9.926;2023-03-01T03:08:55;31.23;;;12.32;;
66870;SDS011;53780;44.998;9.926;2023-03-01T03:11:58;29.20;;;12.00;;
66870;SDS011;53780;44.998;9.926;2023-03-01T03:15:03;29.07;;;11.80;;
66870;SDS011;53780;44.998;9.926;2023-03-01T03:18:14;30.50;;;12.32;;
66870;SDS011;53780;44.998;9.926;2023-03-01T03:21:19;31.77;;;12.75;;
66870;SDS011;53780;44.998;9.926;2023-03-01T03:24:23;30.55;;;12.05;;
66870;SDS011;53780;44.998;9.926;2023-03-01T03:27:27;30.40;;;11.80;;
66870;SDS011;53780;44.998;9.926;2023-03-01T03:30:32;30.23;;;12.27;;
66870;SDS011;53780;44.998;9.926;2023-03-01T03:33:35;31.42;;;12.50;;
66870;SDS011;53780;44.998;9.926;2023-03-01T03:36:39;32.65;;;12.68;;
66870;SDS011;53780;44.998;9.926;2023-03-01T03:39:43;28.80;;;12.13;;
66870;SDS011;53780;44.998;9.926;2023-03-01T03:42:47;31.15;;;11.93;;
66870;SDS011;53780;44.998;9.926;2023-03-01T03:45:51;30.17;;;12.10;;
66870;SDS011;53780;44.998;9.926;2023-03-01T03:48:57;32.83;;;12.77;;
66870;SDS011;53780;44.998;9.926;2023-03-01T03:52:01;29.20;;;11.98;;
66870;SDS011;53780;44.998;9.926;2023-03-01T03:55:05;30.25;;;12.63;;
66870;SDS011;53780;44.998;9.926;2023-03-01T03:58:14;27.92;;;11.68;;
66870;SDS011;53780;44.998;9.926;2023-03-01T04:01:19;31.30;;;11.40;;
66870;SDS011;53780;44.998;9.926;2023-03-01T04:04:24;29.55;;;11.63;;
66870;SDS011;53780;44.998;9.926;2023-03-01T04:07:28;27.40;;;11.60;;
66870;SDS011;53780;44.998;9.926;2023-03-01T04:10:44;32.22;;;11.40;;
66870;SDS011;53780;44.998;9.926;2023-03-01T04:13:49;29.88;;;11.32;;
66870;SDS011;53780;44.998;9.926;2023-03-01T04:16:54;31.00;;;10.80;;
66870;SDS011;53780;44.998;9.926;2023-03-01T04:19:58;28.88;;;11.15;;
66870;SDS011;53780;44.998;9.926;2023-03-01T04:23:06;30.15;;;11.32;;
66870;SDS011;53780;44.998;9.926;2023-03-01T04:26:13;30.35;;;10.88;;
66870;SDS011;53780;44.998;9.926;2023-03-01T04:29:17;27.90;;;10.88;;
66870;SDS011;53780;44.998;9.926;2023-03-01T04:32:21;27.47;;;10.80;;
66870;SDS011;53780;44.998;9.926;2023-03-01T04:35:25;25.83;;;10.93;;
66870;SDS011;53780;44.998;9.926;2023-03-01T04:38:29;27.38;;;10.60;;
66870;SDS011;53780;44.998;9.926;2023-03-01T04:41:33;26.08;;;10.07;;
66870;SDS011;53780;44.998;9.926;2023-03-01T04:44:37;28.10;;;10.68;;
66870;SDS011;53780;44.998;9.926;2023-03-01T04:47:42;28.23;;;10.40;;
66870;SDS011;53780;44.998;9.926;2023-03-01T04:50:47;27.23;;;10.27;;
66870;SDS011;53780;44.998;9.926;2023-03-01T04:53:51;25.85;;;10.48;;
66870;SDS011;53780;44.998;9.926;2023-03-01T04:56:55;25.90;;;9.80;;
66870;SDS011;53780;44.998;9.926;2023-03-01T04:59:59;26.10;;;10.82;;
66870;SDS011;53780;44.998;9.926;2023-03-01T05:03:03;27.53;;;10.50;;
66870;SDS011;53780;44.998;9.926;2023-03-01T05:06:07;26.38;;;10.85;;
66870;SDS011;53780;44.998;9.926;2023-03-01T05:09:10;31.13;;;11.65;;
66870;SDS011;53780;44.998;9.926;2023-03-01T05:12:14;28.30;;;10.63;;
66870;SDS011;53780;44.998;9.926;2023-03-01T05:15:18;28.27;;;10.63;;
66870;SDS011;53780;44.998;9.926;2023-03-01T05:18:25;34.27;;;11.60;;
66870;SDS011;53780;44.998;9.926;2023-03-01T05:21:29;29.70;;;12.10;;
66870;SDS011;53780;44.998;9.926;2023-03-01T05:24:34;31.38;;;12.50;;
66870;SDS011;53780;44.998;9.926;2023-03-01T05:27:39;31.13;;;12.43;;
66870;SDS011;53780;44.998;9.926;2023-03-01T05:30:42;32.25;;;12.07;;
66870;SDS011;53780;44.998;9.926;2023-03-01T05:33:46;29.17;;;11.50;;
66870;SDS011;53780;44.998;9.926;2023-03-01T05:36:50;30.27;;;11.80;;
66870;SDS011;53780;44.998;9.926;2023-03-01T05:39:56;30.65;;;12.85;;
66870;SDS011;53780;44.998;9.926;2023-03-01T05:43:00;29.45;;;11.75;;
66870;SDS011;53780;44.998;9.926;2023-03-01T05:46:03;30.73;;;11.98;;
66870;SDS011;53780;44.998;9.926;2023-03-01T05:49:07;31.83;;;12.10;;
66870;SDS011;53780;44.998;9.926;2023-03-01T05:52:11;31.70;;;11.65;;
66870;SDS011;53780;44.998;9.926;2023-03-01T05:55:16;29.92;;;11.55;;
66870;SDS011;53780;44.998;9.926;2023-03-01T05:58:23;29.58;;;11.57;;
66870;SDS011;53780;44.998;9.926;2023-03-01T06:01:27;31.30;;;12.25;;
66870;SDS011;53780;44.998;9.926;2023-03-01T06:04:32;29.10;;;12.17;;
66870;SDS011;53780;44.998;9.926;2023-03-01T06:07:36;31.55;;;12.18;;
66870;SDS011;53780;44.998;9.926;2023-03-01T06:10:41;31.15;;;11.95;;
66870;SDS011;53780;44.998;9.926;2023-03-01T06:13:44;32.42;;;12.27;;
66870;SDS011;53780;44.998;9.926;2023-03-01T06:16:49;31.27;;;12.35;;
66870;SDS011;53780;44.998;9.926;2023-03-01T06:19:53;33.23;;;12.17;;
66870;SDS011;53780;44.998;9.926;2023-03-01T06:22:57;30.13;;;11.70;;
66870;SDS011;53780;44.998;9.926;2023-03-01T06:26:06;32.13;;;12.15;;
66870;SDS011;53780;44.998;9.926;2023-03-01T06:29:11;28.50;;;11.75;;
66870;SDS011;53780;44.998;9.926;2023-03-01T06:32:15;35.00;;;12.63;;
66870;SDS011;53780;44.998;9.926;2023-03-01T06:35:20;33.73;;;13.53;;
66870;SDS011;53780;44.998;9.926;2023-03-01T06:38:24;92.95;;;40.63;;
66870;SDS011;53780;44.998;9.926;2023-03-01T06:41:28;99.70;;;44.03;;
66870;SDS011;53780;44.998;9.926;2023-03-01T06:44:33;64.13;;;29.08;;
66870;SDS011;53780;44.998;9.926;2023-03-01T06:47:37;33.92;;;13.98;;
66870;SDS011;53780;44.998;9.926;2023-03-01T06:50:40;33.73;;;13.07;;
66870;SDS011;53780;44.998;9.926;2023-03-01T06:53:45;33.67;;;13.43;;
66870;SDS011;53780;44.998;9.926;2023-03-01T06:56:49;32.35;;;12.55;;
66870;SDS011;53780;44.998;9.926;2023-03-01T06:59:54;31.60;;;12.63;;
66870;SDS011;53780;44.998;9.926;2023-03-01T07:02:58;27.83;;;12.13;;
66870;SDS011;53780;44.998;9.926;2023-03-01T07:06:05;31.77;;;13.30;;
66870;SDS011;53780;44.998;9.926;2023-03-01T07:09:08;33.80;;;13.52;;
66870;SDS011;53780;44.998;9.926;2023-03-01T07:12:12;35.95;;;14.18;;
66870;SDS011;53780;44.998;9.926;2023-03-01T07:15:16;33.70;;;13.90;;
66870;SDS011;53780;44.998;9.926;2023-03-01T07:18:20;36.20;;;14.70;;
66870;SDS011;53780;44.998;9.926;2023-03-01T07:21:24;33.90;;;15.00;;
66870;SDS011;53780;44.998;9.926;2023-03-01T07:24:31;36.70;;;15.95;;
66870;SDS011;53780;44.998;9.926;2023-03-01T07:27:38;37.47;;;14.90;;
66870;SDS011;53780;44.998;9.926;2023-03-01T07:30:43;38.53;;;16.17;;
66870;SDS011;53780;44.998;9.926;2023-03-01T07:33:47;37.08;;;15.20;;
66870;SDS011;53780;44.998;9.926;2023-03-01T07:36:50;37.87;;;16.10;;
66870;SDS011;53780;44.998;9.926;2023-03-01T07:39:54;35.75;;;15.32;;
66870;SDS011;53780;44.998;9.926;2023-03-01T07:42:58;35.08;;;15.13;;
66870;SDS011;53780;44.998;9.926;2023-03-01T07:46:03;35.72;;;14.85;;
66870;SDS011;53780;44.998;9.926;2023-03-01T07:49:07;33.67;;;14.68;;
66870;SDS011;53780;44.998;9.926;2023-03-01T07:52:11;35.77;;;14.77;;
66870;SDS011;53780;44.998;9.926;2023-03-01T07:55:15;35.33;;;15.10;;
66870;SDS011;53780;44.998;9.926;2023-03-01T07:58:20;31.98;;;14.73;;
66870;SDS011;53780;44.998;9.926;2023-03-01T08:01:24;33.03;;;14.45;;
66870;SDS011;53780;44.998;9.926;2023-03-01T08:04:27;32.10;;;14.13;;
66870;SDS011;53780;44.998;9.926;2023-03-01T08:07:32;31.10;;;13.40;;
66870;SDS011;53780;44.998;9.926;2023-03-01T08:10:36;28.25;;;13.18;;
66870;SDS011;53780;44.998;9.926;2023-03-01T08:13:40;31.50;;;14.38;;
66870;SDS011;53780;44.998;9.926;2023-03-01T08:16:44;29.73;;;13.55;;
66870;SDS011;53780;44.998;9.926;2023-03-01T08:19:48;29.05;;;12.68;;
66870;SDS011;53780;44.998;9.926;2023-03-01T08:22:52;26.83;;;12.07;;
66870;SDS011;53780;44.998;9.926;2023-03-01T08:26:02;27.00;;;11.88;;
66870;SDS011;53780;44.998;9.926;2023-03-01T08:29:15;26.60;;;11.77;;
66870;SDS011;53780;44.998;9.926;2023-03-01T08:32:19;31.00;;;12.32;;
66870;SDS011;53780;44.998;9.926;2023-03-01T08:35:23;28.50;;;12.77;;
66870;SDS011;53780;44.998;9.926;2023-03-01T08:38:27;26.60;;;12.17;;
66870;SDS011;53780;44.998;9.926;2023-03-01T08:41:31;24.95;;;11.63;;
66870;SDS011;53780;44.998;9.926;2023-03-01T08:44:35;27.33;;;11.90;;
66870;SDS011;53780;44.998;9.926;2023-03-01T08:47:39;29.35;;;12.32;;
66870;SDS011;53780;44.998;9.926;2023-03-01T08:50:43;28.63;;;12.30;;
66870;SDS011;53780;44.998;9.926;2023-03-01T08:53:47;31.53;;;11.83;;
66870;SDS011;53780;44.998;9.926;2023-03-01T08:56:51;27.92;;;12.73;;
66870;SDS011;53780;44.998;9.926;2023-03-01T08:59:55;30.83;;;12.88;;
66870;SDS011;53780;44.998;9.926;2023-03-01T09:02:59;28.45;;;13.02;;
66870;SDS011;53780;44.998;9.926;2023-03-01T09:06:04;28.83;;;12.68;;
66870;SDS011;53780;44.998;9.926;2023-03-01T09:09:12;25.90;;;12.20;;
66870;SDS011;53780;44.998;9.926;2023-03-01T09:12:20;29.08;;;11.85;;
66870;SDS011;53780;44.998;9.926;2023-03-01T09:15:25;28.08;;;12.32;;
66870;SDS011;53780;44.998;9.926;2023-03-01T09:18:29;25.23;;;11.57;;
66870;SDS011;53780;44.998;9.926;2023-03-01T09:21:33;28.35;;;11.93;;
66870;SDS011;53780;44.998;9.926;2023-03-01T09:24:37;25.20;;;11.27;;
66870;SDS011;53780;44.998;9.926;2023-03-01T09:27:40;24.95;;;12.07;;
66870;SDS011;53780;44.998;9.926;2023-03-01T09:30:45;26.50;;;11.90;;
66870;SDS011;53780;44.998;9.926;2023-03-01T09:33:50;26.77;;;12.20;;
66870;SDS011;53780;44.998;9.926;2023-03-01T09:36:56;30.02;;;11.48;;
66870;SDS011;53780;44.998;9.926;2023-03-01T09:40:02;29.80;;;12.13;;
66870;SDS011;53780;44.998;9.926;2023-03-01T09:43:11;29.00;;;12.35;;
66870;SDS011;53780;44.998;9.926;2023-03-01T09:46:23;28.38;;;12.57;;
66870;SDS011;53780;44.998;9.926;2023-03-01T09:49:30;25.45;;;11.23;;
66870;SDS011;53780;44.998;9.926;2023-03-01T09:56:15;25.97;;;11.20;;
66870;SDS011;53780;44.998;9.926;2023-03-01T10:03:24;24.85;;;10.23;;
66870;SDS011;53780;44.998;9.926;2023-03-01T10:06:31;29.08;;;11.15;;
66870;SDS011;53780;44.998;9.926;2023-03-01T10:09:36;22.55;;;10.18;;
66870;SDS011;53780;44.998;9.926;2023-03-01T10:12:41;22.97;;;10.40;;
66870;SDS011;53780;44.998;9.926;2023-03-01T10:15:49;25.42;;;10.82;;
66870;SDS011;53780;44.998;9.926;2023-03-01T10:18:59;23.05;;;10.05;;
66870;SDS011;53780;44.998;9.926;2023-03-01T10:22:16;23.83;;;10.90;;
66870;SDS011;53780;44.998;9.926;2023-03-01T10:32:06;23.30;;;10.95;;
66870;SDS011;53780;44.998;9.926;2023-03-01T10:35:20;21.98;;;11.07;;
66870;SDS011;53780;44.998;9.926;2023-03-01T10:38:31;24.45;;;10.93;;
66870;SDS011;53780;44.998;9.926;2023-03-01T10:52:23;22.15;;;10.30;;
66870;SDS011;53780;44.998;9.926;2023-03-01T10:55:36;22.33;;;10.38;;
66870;SDS011;53780;44.998;9.926;2023-03-01T11:02:04;20.40;;;9.17;;
66870;SDS011;53780;44.998;9.926;2023-03-01T11:05:22;22.23;;;9.50;;
66870;SDS011;53780;44.998;9.926;2023-03-01T11:08:32;20.83;;;9.27;;
66870;SDS011;53780;44.998;9.926;2023-03-01T11:11:45;20.02;;;9.32;;
66870;SDS011;53780;44.998;9.926;2023-03-01T11:14:50;18.75;;;9.15;;
66870;SDS011;53780;44.998;9.926;2023-03-01T11:17:57;21.13;;;9.37;;
66870;SDS011;53780;44.998;9.926;2023-03-01T11:21:01;21.20;;;9.85;;
66870;SDS011;53780;44.998;9.926;2023-03-01T11:24:10;24.95;;;9.95;;
66870;SDS011;53780;44.998;9.926;2023-03-01T11:33:59;20.60;;;9.43;;
66870;SDS011;53780;44.998;9.926;2023-03-01T11:40:45;20.77;;;9.82;;
66870;SDS011;53780;44.998;9.926;2023-03-01T11:44:05;24.52;;;9.63;;
66870;SDS011;53780;44.998;9.926;2023-03-01T11:50:45;21.77;;;10.13;;
66870;SDS011;53780;44.998;9.926;2023-03-01T11:53:57;24.05;;;10.63;;
66870;SDS011;53780;44.998;9.926;2023-03-01T12:04:20;23.58;;;10.45;;
66870;SDS011;53780;44.998;9.926;2023-03-01T12:07:42;22.93;;;9.90;;
66870;SDS011;53780;44.998;9.926;2023-03-01T12:25:27;22.80;;;9.90;;
66870;SDS011;53780;44.998;9.926;2023-03-01T12:32:38;22.05;;;9.90;;
66870;SDS011;53780;44.998;9.926;2023-03-01T12:35:44;23.77;;;9.70;;
66870;SDS011;53780;44.998;9.926;2023-03-01T12:42:58;24.13;;;10.57;;
66870;SDS011;53780;44.998;9.926;2023-03-01T12:49:54;26.55;;;10.27;;
66870;SDS011;53780;44.998;9.926;2023-03-01T12:53:01;23.77;;;10.70;;
66870;SDS011;53780;44.998;9.926;2023-03-01T12:56:05;23.98;;;10.30;;
66870;SDS011;53780;44.998;9.926;2023-03-01T13:00:02;24.57;;;10.47;;
66870;SDS011;53780;44.998;9.926;2023-03-01T13:13:27;22.65;;;9.70;;
66870;SDS011;53780;44.998;9.926;2023-03-01T13:19:35;27.35;;;10.20;;
66870;SDS011;53780;44.998;9.926;2023-03-01T13:22:39;24.75;;;10.48;;
66870;SDS011;53780;44.998;9.926;2023-03-01T13:29:11;25.25;;;10.52;;
66870;SDS011;53780;44.998;9.926;2023-03-01T13:32:30;23.23;;;10.27;;
66870;SDS011;53780;44.998;9.926;2023-03-01T13:35:43;24.10;;;11.10;;
66870;SDS011;53780;44.998;9.926;2023-03-01T13:38:48;24.30;;;10.52;;
66870;SDS011;53780;44.998;9.926;2023-03-01T13:42:01;25.75;;;9.95;;
66870;SDS011;53780;44.998;9.926;2023-03-01T13:45:14;26.65;;;11.07;;
66870;SDS011;53780;44.998;9.926;2023-03-01T13:48:24;25.53;;;10.27;;
66870;SDS011;53780;44.998;9.926;2023-03-01T13:51:30;23.48;;;10.07;;
66870;SDS011;53780;44.998;9.926;2023-03-01T13:54:34;24.90;;;10.70;;
66870;SDS011;53780;44.998;9.926;2023-03-01T13:57:38;26.77;;;10.40;;
66870;SDS011;53780;44.998;9.926;2023-03-01T14:00:45;27.17;;;11.43;;
66870;SDS011;53780;44.998;9.926;2023-03-01T14:03:48;25.17;;;10.43;;
66870;SDS011;53780;44.998;9.926;2023-03-01T14:07:08;24.77;;;10.48;;
66870;SDS011;53780;44.998;9.926;2023-03-01T14:10:43;25.73;;;10.10;;
66870;SDS011;53780;44.998;9.926;2023-03-01T14:20:30;25.13;;;10.40;;
66870;SDS011;53780;44.998;9.926;2023-03-01T14:23:37;26.48;;;10.05;;
66870;SDS011;53780;44.998;9.926;2023-03-01T14:26:43;27.42;;;10.75;;
66870;SDS011;53780;44.998;9.926;2023-03-01T14:29:54;23.95;;;9.65;;
66870;SDS011;53780;44.998;9.926;2023-03-01T14:33:04;21.35;;;8.93;;
66870;SDS011;53780;44.998;9.926;2023-03-01T14:36:11;26.10;;;9.63;;
66870;SDS011;53780;44.998;9.926;2023-03-01T14:39:20;21.83;;;9.10;;
66870;SDS011;53780;44.998;9.926;2023-03-01T14:42:31;22.13;;;9.23;;
66870;SDS011;53780;44.998;9.926;2023-03-01T14:45:38;33.55;;;14.63;;
66870;SDS011;53780;44.998;9.926;2023-03-01T14:48:43;33.00;;;13.88;;
66870;SDS011;53780;44.998;9.926;2023-03-01T14:51:53;30.77;;;13.18;;
66870;SDS011;53780;44.998;9.926;2023-03-01T14:55:21;29.07;;;13.07;;
66870;SDS011;53780;44.998;9.926;2023-03-01T14:58:36;25.58;;;11.90;;
66870;SDS011;53780;44.998;9.926;2023-03-01T15:01:41;24.27;;;10.98;;
66870;SDS011;53780;44.998;9.926;2023-03-01T15:04:52;19.98;;;8.65;;
66870;SDS011;53780;44.998;9.926;2023-03-01T15:08:05;22.20;;;9.07;;
66870;SDS011;53780;44.998;9.926;2023-03-01T15:14:38;21.85;;;8.48;;
66870;SDS011;53780;44.998;9.926;2023-03-01T15:17:44;22.17;;;8.30;;
66870;SDS011;53780;44.998;9.926;2023-03-01T15:20:52;20.38;;;8.85;;
66870;SDS011;53780;44.998;9.926;2023-03-01T15:24:07;22.33;;;9.98;;
66870;SDS011;53780;44.998;9.926;2023-03-01T15:27:24;22.88;;;9.10;;
66870;SDS011;53780;44.998;9.926;2023-03-01T15:30:30;20.10;;;9.18;;
66870;SDS011;53780;44.998;9.926;2023-03-01T15:33:40;20.90;;;8.70;;
66870;SDS011;53780;44.998;9.926;2023-03-01T15:36:52;23.83;;;9.20;;
66870;SDS011;53780;44.998;9.926;2023-03-01T15:39:57;25.77;;;9.95;;
66870;SDS011;53780;44.998;9.926;2023-03-01T15:43:02;23.80;;;9.30;;
66870;SDS011;53780;44.998;9.926;2023-03-01T15:46:14;22.75;;;9.23;;
66870;SDS011;53780;44.998;9.926;2023-03-01T15:49:40;23.98;;;10.00;;
66870;SDS011;53780;44.998;9.926;2023-03-01T15:52:45;26.27;;;11.32;;
66870;SDS011;53780;44.998;9.926;2023-03-01T15:55:50;29.00;;;10.85;;
66870;SDS011;53780;44.998;9.926;2023-03-01T15:58:57;28.33;;;10.50;;
66870;SDS011;53780;44.998;9.926;2023-03-01T16:02:09;27.25;;;11.20;;
66870;SDS011;53780;44.998;9.926;2023-03-01T16:05:20;27.25;;;10.93;;
66870;SDS011;53780;44.998;9.926;2023-03-01T16:08:29;30.67;;;11.55;;
66870;SDS011;53780;44.998;9.926;2023-03-01T16:11:34;28.42;;;11.95;;
66870;SDS011;53780;44.998;9.926;2023-03-01T16:14:40;27.87;;;11.93;;
66870;SDS011;53780;44.998;9.926;2023-03-01T16:17:44;29.13;;;11.73;;
66870;SDS011;53780;44.998;9.926;2023-03-01T16:20:54;28.63;;;10.73;;
66870;SDS011;53780;44.998;9.926;2023-03-01T16:23:58;26.67;;;10.88;;
66870;SDS011;53780;44.998;9.926;2023-03-01T16:27:02;24.58;;;10.55;;
66870;SDS011;53780;44.998;9.926;2023-03-01T16:30:07;28.60;;;12.02;;
66870;SDS011;53780;44.998;9.926;2023-03-01T16:33:11;31.40;;;12.18;;
66870;SDS011;53780;44.998;9.926;2023-03-01T16:36:16;29.00;;;11.50;;
66870;SDS011;53780;44.998;9.926;2023-03-01T16:39:22;26.73;;;11.98;;
66870;SDS011;53780;44.998;9.926;2023-03-01T16:42:26;30.35;;;12.30;;
66870;SDS011;53780;44.998;9.926;2023-03-01T16:45:34;29.63;;;11.68;;
66870;SDS011;53780;44.998;9.926;2023-03-01T16:48:39;27.13;;;11.60;;
66870;SDS011;53780;44.998;9.926;2023-03-01T16:51:43;29.58;;;11.63;;
66870;SDS011;53780;44.998;9.926;2023-03-01T16:54:47;24.80;;;10.32;;
66870;SDS011;53780;44.998;9.926;2023-03-01T16:57:52;25.20;;;10.57;;
66870;SDS011;53780;44.998;9.926;2023-03-01T17:00:56;28.65;;;11.52;;
66870;SDS011;53780;44.998;9.926;2023-03-01T17:04:00;23.48;;;10.70;;
66870;SDS011;53780;44.998;9.926;2023-03-01T17:07:04;27.55;;;11.57;;
66870;SDS011;53780;44.998;9.926;2023-03-01T17:10:09;27.95;;;11.40;;
66870;SDS011;53780;44.998;9.926;2023-03-01T17:13:14;30.85;;;12.70;;
66870;SDS011;53780;44.998;9.926;2023-03-01T17:16:19;29.35;;;12.07;;
66870;SDS011;53780;44.998;9.926;2023-03-01T17:19:23;29.58;;;12.50;;
66870;SDS011;53780;44.998;9.926;2023-03-01T17:22:27;26.90;;;11.23;;
66870;SDS011;53780;44.998;9.926;2023-03-01T17:25:31;24.02;;;11.27;;
66870;SDS011;53780;44.998;9.926;2023-03-01T17:28:35;27.33;;;11.95;;
66870;SDS011;53780;44.998;9.926;2023-03-01T17:31:40;27.25;;;11.43;;
66870;SDS011;53780;44.998;9.926;2023-03-01T17:34:44;27.77;;;11.38;;
66870;SDS011;53780;44.998;9.926;2023-03-01T17:37:48;26.00;;;11.15;;
66870;SDS011;53780;44.998;9.926;2023-03-01T17:40:52;30.45;;;13.63;;
66870;SDS011;53780;44.998;9.926;2023-03-01T17:43:56;30.33;;;13.57;;
66870;SDS011;53780;44.998;9.926;2023-03-01T17:47:00;24.73;;;11.15;;
66870;SDS011;53780;44.998;9.926;2023-03-01T17:50:05;25.75;;;11.02;;
66870;SDS011;53780;44.998;9.926;2023-03-01T17:53:10;21.92;;;9.65;;
66870;SDS011;53780;44.998;9.926;2023-03-01T17:56:15;34.42;;;14.48;;
66870;SDS011;53780;44.998;9.926;2023-03-01T17:59:19;24.10;;;10.57;;
66870;SDS011;53780;44.998;9.926;2023-03-01T18:02:23;22.42;;;9.40;;
66870;SDS011;53780;44.998;9.926;2023-03-01T18:05:33;36.65;;;15.15;;
66870;SDS011;53780;44.998;9.926;2023-03-01T18:08:38;32.70;;;14.70;;
66870;SDS011;53780;44.998;9.926;2023-03-01T18:11:42;29.38;;;11.32;;
66870;SDS011;53780;44.998;9.926;2023-03-01T18:14:47;32.10;;;14.13;;
66870;SDS011;53780;44.998;9.926;2023-03-01T18:17:55;31.25;;;12.80;;
66870;SDS011;53780;44.998;9.926;2023-03-01T18:21:00;31.70;;;12.25;;
66870;SDS011;53780;44.998;9.926;2023-03-01T18:24:04;29.45;;;12.95;;
66870;SDS011;53780;44.998;9.926;2023-03-01T18:27:09;28.60;;;11.43;;
66870;SDS011;53780;44.998;9.926;2023-03-01T18:30:13;26.85;;;11.30;;
66870;SDS011;53780;44.998;9.926;2023-03-01T18:33:17;26.60;;;10.73;;
66870;SDS011;53780;44.998;9.926;2023-03-01T18:36:23;24.58;;;10.77;;
66870;SDS011;53780;44.998;9.926;2023-03-01T18:39:28;29.10;;;12.88;;
66870;SDS011;53780;44.998;9.926;2023-03-01T18:42:32;32.22;;;12.95;;
66870;SDS011;53780;44.998;9.926;2023-03-01T18:45:36;22.63;;;9.45;;
66870;SDS011;53780;44.998;9.926;2023-03-01T18:48:41;22.38;;;9.75;;
66870;SDS011;53780;44.998;9.926;2023-03-01T18:51:45;19.25;;;9.50;;
66870;SDS011;53780;44.998;9.926;2023-03-01T18:54:48;21.95;;;9.55;;
66870;SDS011;53780;44.998;9.926;2023-03-01T18:57:53;23.25;;;9.73;;
66870;SDS011;53780;44.998;9.926;2023-03-01T19:00:57;20.92;;;9.68;;
66870;SDS011;53780;44.998;9.926;2023-03-01T19:04:02;19.88;;;8.73;;
66870;SDS011;53780;44.998;9.926;2023-03-01T19:07:06;18.35;;;8.32;;
66870;SDS011;53780;44.998;9.926;2023-03-01T19:10:10;20.08;;;9.60;;
66870;SDS011;53780;44.998;9.926;2023-03-01T19:13:15;19.05;;;9.65;;
66870;SDS011;53780;44.998;9.926;2023-03-01T19:16:20;19.83;;;9.65;;
66870;SDS011;53780;44.998;9.926;2023-03-01T19:19:26;20.63;;;10.07;;
66870;SDS011;53780;44.998;9.926;2023-03-01T19:22:31;29.38;;;13.55;;
66870;SDS011;53780;44.998;9.926;2023-03-01T19:25:34;25.17;;;12.18;;
66870;SDS011;53780;44.998;9.926;2023-03-01T19:28:39;19.52;;;9.00;;
66870;SDS011;53780;44.998;9.926;2023-03-01T19:31:43;20.88;;;10.13;;
66870;SDS011;53780;44.998;9.926;2023-03-01T19:34:47;17.08;;;8.68;;
66870;SDS011;53780;44.998;9.926;2023-03-01T19:37:51;20.20;;;9.63;;
66870;SDS011;53780;44.998;9.926;2023-03-01T19:40:56;20.02;;;9.98;;
66870;SDS011;53780;44.998;9.926;2023-03-01T19:44:00;20.40;;;9.90;;
66870;SDS011;53780;44.998;9.926;2023-03-01T19:47:08;22.40;;;10.30;;
66870;SDS011;53780;44.998;9.926;2023-03-01T19:50:12;21.23;;;10.55;;
66870;SDS011;53780;44.998;9.926;2023-03-01T19:53:15;20.88;;;10.57;;
66870;SDS011;53780;44.998;9.926;2023-03-01T19:56:20;21.60;;;10.57;;
66870;SDS011;53780;44.998;9.926;2023-03-01T19:59:24;20.45;;;9.68;;
66870;SDS011;53780;44.998;9.926;2023-03-01T20:02:30;21.73;;;10.05;;
66870;SDS011;53780;44.998;9.926;2023-03-01T20:05:35;23.13;;;10.90;;
66870;SDS011;53780;44.998;9.926;2023-03-01T20:08:39;24.80;;;12.50;;
66870;SDS011;53780;44.998;9.926;2023-03-01T20:11:43;21.33;;;10.70;;